Time;durP1;ratioP1;P1;durP2;ratioP2;P2;SDS_P1;SDS_P2;PMS_P1;PMS_P2;Temp;Humidity;BMP_temperature;BMP_pressure;BME280_temperature;BME280_humidity;BME280_pressure;Samples;Min_cycle;Max_cycle;Signal;HPM_P1;HPM_P2
2021/10/16 00:02:22;;;;;;;8.70;6.35;;;;;;;;;;143727;569;46020;-57
2021/10/16 00:04:50;;;;;;;10.23;5.78;;;;;;;;;;143729;597;46021;-58
2021/10/16 00:07:17;;;;;;;10.73;5.80;;;;;;;;;;143727;577;47020;-58
2021/10/16 00:09:44;;;;;;;8.13;5.32;;;;;;;;;;143725;599;47010;-58
2021/10/16 00:12:11;;;;;;;9.27;5.70;;;;;;;;;;143728;597;46021;-58
2021/10/16 00:14:38;;;;;;;8.82;5.18;;;;;;;;;;143729;636;46020;-57
2021/10/16 00:17:05;;;;;;;9.27;6.10;;;;;;;;;;143725;583;47021;-58
2021/10/16 00:19:32;;;;;;;8.73;5.47;;;;;;;;;;143725;580;47010;-58
2021/10/16 00:21:59;;;;;;;8.90;6.50;;;;;;;;;;143728;623;46020;-57
2021/10/16 00:24:27;;;;;;;14.32;7.15;;;;;;;;;;143728;586;46020;-58
2021/10/16 00:26:54;;;;;;;7.82;5.40;;;;;;;;;;143725;621;47023;-58
2021/10/16 00:29:21;;;;;;;7.40;5.90;;;;;;;;;;143725;597;46010;-58
2021/10/16 00:31:48;;;;;;;8.20;5.80;;;;;;;;;;143729;564;46020;-58
2021/10/16 00:34:16;;;;;;;9.38;5.50;;;;;;;;;;143729;581;46021;-57
2021/10/16 00:36:43;;;;;;;8.00;5.70;;;;;;;;;;143726;592;47020;-58
2021/10/16 00:39:10;;;;;;;9.63;6.62;;;;;;;;;;143723;623;47011;-58
2021/10/16 00:41:37;;;;;;;10.10;6.30;;;;;;;;;;143726;582;46021;-57
2021/10/16 00:44:24;;;;;;;6.78;5.60;;;;;;;;;;143728;582;46020;-58
2021/10/16 00:46:56;;;;;;;12.10;6.90;;;;;;;;;;143724;601;47021;-57
2021/10/16 00:49:24;;;;;;;12.25;6.70;;;;;;;;;;143725;573;47010;-58
2021/10/16 00:51:52;;;;;;;9.25;6.30;;;;;;;;;;143727;590;46020;-57
2021/10/16 00:54:22;;;;;;;11.10;6.12;;;;;;;;;;143731;584;46020;-58
2021/10/16 00:56:52;;;;;;;10.10;6.82;;;;;;;;;;143724;577;47020;-57
2021/10/16 00:59:20;;;;;;;9.60;5.72;;;;;;;;;;143726;594;46010;-57
2021/10/16 01:01:47;;;;;;;10.90;6.90;;;;;;;;;;143726;600;46020;-57
2021/10/16 01:04:15;;;;;;;10.75;6.78;;;;;;;;;;143727;613;47012;-57
2021/10/16 01:06:42;;;;;;;10.77;6.70;;;;;;;;;;143725;575;47020;-58
2021/10/16 01:09:10;;;;;;;10.57;6.65;;;;;;;;;;143725;566;47010;-58
2021/10/16 01:11:56;;;;;;;8.50;6.57;;;;;;;;;;143728;579;46021;-57
2021/10/16 01:14:24;;;;;;;7.85;5.60;;;;;;;;;;143728;590;46020;-57
2021/10/16 01:16:52;;;;;;;8.75;5.97;;;;;;;;;;143726;598;47020;-57
2021/10/16 01:19:21;;;;;;;16.35;9.07;;;;;;;;;;143725;573;47010;-57
2021/10/16 01:21:50;;;;;;;8.25;6.50;;;;;;;;;;143727;605;46020;-57
2021/10/16 01:24:19;;;;;;;11.27;7.25;;;;;;;;;;143729;683;46020;-57
2021/10/16 01:26:49;;;;;;;9.88;6.62;;;;;;;;;;143725;576;47020;-57
2021/10/16 01:29:26;;;;;;;13.48;7.40;;;;;;;;;;143723;601;47010;-57
2021/10/16 01:31:58;;;;;;;11.93;8.13;;;;;;;;;;143727;574;46020;-57
2021/10/16 01:34:25;;;;;;;7.10;5.87;;;;;;;;;;143728;574;46021;-57
2021/10/16 01:36:52;;;;;;;7.90;6.43;;;;;;;;;;143725;635;47020;-57
2021/10/16 01:39:21;;;;;;;11.50;8.70;;;;;;;;;;143724;588;47011;-53
2021/10/16 01:41:48;;;;;;;10.35;7.47;;;;;;;;;;143728;608;46021;-52
2021/10/16 01:44:15;;;;;;;11.68;7.12;;;;;;;;;;143729;581;46020;-53
2021/10/16 01:46:43;;;;;;;8.90;7.07;;;;;;;;;;143728;564;47021;-52
2021/10/16 01:49:16;;;;;;;9.60;7.25;;;;;;;;;;143726;609;47010;-53
2021/10/16 01:51:44;;;;;;;10.20;7.35;;;;;;;;;;143726;616;46020;-53
2021/10/16 01:54:12;;;;;;;11.50;6.93;;;;;;;;;;143729;612;46020;-53
2021/10/16 01:56:38;;;;;;;11.20;7.07;;;;;;;;;;143725;594;47023;-53
2021/10/16 01:59:25;;;;;;;10.00;6.35;;;;;;;;;;143723;580;47010;-52
2021/10/16 02:01:53;;;;;;;8.77;5.75;;;;;;;;;;143726;587;46020;-52
2021/10/16 02:04:20;;;;;;;12.52;6.60;;;;;;;;;;143728;605;46021;-57
2021/10/16 02:06:47;;;;;;;12.60;6.72;;;;;;;;;;143726;602;47020;-57
2021/10/16 02:09:15;;;;;;;10.38;7.75;;;;;;;;;;143726;601;46023;-57
2021/10/16 02:11:41;;;;;;;13.10;7.45;;;;;;;;;;143728;637;46021;-57
2021/10/16 02:14:08;;;;;;;9.90;6.62;;;;;;;;;;143729;585;46020;-58
2021/10/16 02:16:36;;;;;;;8.70;6.62;;;;;;;;;;143725;570;47022;-57
2021/10/16 02:19:04;;;;;;;9.73;7.45;;;;;;;;;;143724;589;47010;-58
2021/10/16 02:21:31;;;;;;;10.60;6.47;;;;;;;;;;143724;641;46020;-57
2021/10/16 02:23:58;;;;;;;9.23;6.12;;;;;;;;;;143727;588;46020;-57
2021/10/16 02:26:25;;;;;;;10.20;5.93;;;;;;;;;;143724;608;47023;-57
2021/10/16 02:28:52;;;;;;;10.13;6.10;;;;;;;;;;143724;599;47010;-57
2021/10/16 02:31:19;;;;;;;10.43;6.30;;;;;;;;;;143727;590;46020;-58
2021/10/16 02:33:47;;;;;;;9.45;6.22;;;;;;;;;;143727;582;46031;-57
2021/10/16 02:36:15;;;;;;;7.10;6.00;;;;;;;;;;143724;585;47020;-57
2021/10/16 02:38:42;;;;;;;9.60;5.93;;;;;;;;;;143725;570;47010;-57
2021/10/16 02:41:09;;;;;;;8.75;6.10;;;;;;;;;;143730;592;46021;-57
2021/10/16 02:43:35;;;;;;;9.07;6.45;;;;;;;;;;143728;590;46020;-58
2021/10/16 02:46:03;;;;;;;9.20;6.75;;;;;;;;;;143725;565;47028;-57
2021/10/16 02:48:30;;;;;;;11.60;7.70;;;;;;;;;;143727;564;47010;-57
2021/10/16 02:50:57;;;;;;;12.80;6.28;;;;;;;;;;143727;572;46020;-58
2021/10/16 02:53:23;;;;;;;8.85;6.30;;;;;;;;;;143729;602;46020;-58
2021/10/16 02:55:50;;;;;;;8.75;6.37;;;;;;;;;;143724;590;47023;-57
2021/10/16 02:58:18;;;;;;;9.15;6.43;;;;;;;;;;143726;620;47010;-57
2021/10/16 03:00:45;;;;;;;10.55;6.62;;;;;;;;;;143727;581;46020;-57
2021/10/16 03:03:12;;;;;;;7.35;5.53;;;;;;;;;;143729;564;46021;-58
2021/10/16 03:05:39;;;;;;;11.43;5.85;;;;;;;;;;143725;564;47020;-58
2021/10/16 03:08:06;;;;;;;9.55;6.35;;;;;;;;;;143726;642;47011;-58
2021/10/16 03:10:33;;;;;;;8.45;6.53;;;;;;;;;;143727;569;46021;-57
2021/10/16 03:13:00;;;;;;;9.82;5.82;;;;;;;;;;143729;669;46020;-58
2021/10/16 03:15:27;;;;;;;13.23;7.72;;;;;;;;;;143724;612;47022;-57
2021/10/16 03:17:55;;;;;;;16.60;7.70;;;;;;;;;;143725;595;47011;-57
2021/10/16 03:20:22;;;;;;;9.82;6.97;;;;;;;;;;143726;577;46020;-58
2021/10/16 03:22:49;;;;;;;11.07;6.62;;;;;;;;;;143729;599;46020;-57
2021/10/16 03:25:15;;;;;;;11.63;7.22;;;;;;;;;;143725;644;47023;-57
2021/10/16 03:27:43;;;;;;;8.32;5.95;;;;;;;;;;143725;596;47010;-57
2021/10/16 03:30:10;;;;;;;10.73;6.82;;;;;;;;;;143727;634;46020;-57
2021/10/16 03:32:37;;;;;;;10.88;6.95;;;;;;;;;;143728;596;46021;-58
2021/10/16 03:35:04;;;;;;;11.52;6.57;;;;;;;;;;143726;578;47022;-57
2021/10/16 03:37:31;;;;;;;9.35;5.32;;;;;;;;;;143725;578;47010;-58
2021/10/16 03:39:58;;;;;;;11.52;7.65;;;;;;;;;;143728;637;46020;-57
2021/10/16 03:42:25;;;;;;;13.68;5.62;;;;;;;;;;143728;595;46020;-55
2021/10/16 03:44:52;;;;;;;10.82;7.30;;;;;;;;;;143725;573;47020;-55
2021/10/16 03:47:19;;;;;;;13.82;9.30;;;;;;;;;;143724;634;47011;-55
2021/10/16 03:49:46;;;;;;;11.20;7.32;;;;;;;;;;143726;580;46020;-54
2021/10/16 03:52:13;;;;;;;10.73;7.50;;;;;;;;;;143726;608;46020;-55
2021/10/16 03:54:40;;;;;;;13.00;8.48;;;;;;;;;;143724;590;48021;-55
2021/10/16 03:57:07;;;;;;;10.65;7.57;;;;;;;;;;143726;619;47010;-55
2021/10/16 03:59:37;;;;;;;10.10;6.05;;;;;;;;;;143727;610;46020;-54
2021/10/16 04:02:05;;;;;;;9.82;7.15;;;;;;;;;;143729;579;46021;-54
2021/10/16 04:04:32;;;;;;;15.07;9.45;;;;;;;;;;143724;603;47022;-55
2021/10/16 04:06:59;;;;;;;13.93;11.12;;;;;;;;;;143724;595;47010;-55
2021/10/16 04:09:26;;;;;;;20.50;13.35;;;;;;;;;;143729;564;46021;-55
2021/10/16 04:11:53;;;;;;;13.20;10.35;;;;;;;;;;143729;564;46020;-55
2021/10/16 04:14:20;;;;;;;9.70;6.90;;;;;;;;;;143726;615;47020;-54
2021/10/16 04:16:47;;;;;;;16.60;11.00;;;;;;;;;;143726;569;46021;-55
2021/10/16 04:19:14;;;;;;;14.38;9.80;;;;;;;;;;143727;619;46020;-54
2021/10/16 04:21:41;;;;;;;14.20;10.05;;;;;;;;;;143726;675;46020;-54
2021/10/16 04:24:09;;;;;;;14.52;11.43;;;;;;;;;;143723;578;47022;-55
2021/10/16 04:26:36;;;;;;;18.75;13.85;;;;;;;;;;143725;609;47010;-55
2021/10/16 04:29:04;;;;;;;16.45;11.45;;;;;;;;;;143728;569;46020;-54
2021/10/16 04:31:31;;;;;;;19.25;16.65;;;;;;;;;;143729;698;46020;-54
2021/10/16 04:33:58;;;;;;;21.42;19.15;;;;;;;;;;143724;589;47020;-55
2021/10/16 04:36:25;;;;;;;21.65;16.37;;;;;;;;;;143726;587;47010;-55
2021/10/16 04:38:52;;;;;;;32.72;29.40;;;;;;;;;;143728;579;46020;-55
2021/10/16 04:41:19;;;;;;;33.53;25.55;;;;;;;;;;143728;592;46020;-55
2021/10/16 04:43:47;;;;;;;22.30;14.43;;;;;;;;;;143726;573;47020;-55
2021/10/16 04:46:14;;;;;;;18.90;15.65;;;;;;;;;;143724;571;47010;-55
2021/10/16 04:48:44;;;;;;;21.58;15.77;;;;;;;;;;143726;580;46021;-55
2021/10/16 04:51:12;;;;;;;21.80;16.50;;;;;;;;;;143727;589;46020;-55
2021/10/16 04:53:40;;;;;;;16.15;11.48;;;;;;;;;;143723;570;47021;-54
2021/10/16 04:56:07;;;;;;;15.45;11.10;;;;;;;;;;143726;607;47010;-55
2021/10/16 04:58:34;;;;;;;15.30;13.13;;;;;;;;;;143728;564;46020;-55
2021/10/16 05:01:01;;;;;;;14.00;11.32;;;;;;;;;;143724;599;46021;-55
2021/10/16 05:03:28;;;;;;;15.18;13.60;;;;;;;;;;143724;600;47023;-55
2021/10/16 05:05:55;;;;;;;11.60;10.32;;;;;;;;;;143724;620;47010;-55
2021/10/16 05:08:23;;;;;;;25.45;13.35;;;;;;;;;;143728;612;46020;-59
2021/10/16 05:10:51;;;;;;;15.50;12.20;;;;;;;;;;143727;604;47020;-59
2021/10/16 05:13:18;;;;;;;29.92;19.87;;;;;;;;;;143725;579;47020;-60
2021/10/16 05:15:45;;;;;;;54.50;36.10;;;;;;;;;;143724;609;47011;-59
2021/10/16 05:18:12;;;;;;;36.33;27.67;;;;;;;;;;143728;647;46020;-59
2021/10/16 05:20:39;;;;;;;41.78;29.50;;;;;;;;;;143729;598;46020;-59
2021/10/16 05:23:06;;;;;;;40.72;26.90;;;;;;;;;;143724;603;47022;-59
2021/10/16 05:25:33;;;;;;;37.10;25.88;;;;;;;;;;143724;602;47010;-59
2021/10/16 05:28:00;;;;;;;35.85;23.17;;;;;;;;;;143726;580;46020;-59
2021/10/16 05:30:27;;;;;;;44.13;25.98;;;;;;;;;;143728;599;46020;-59
2021/10/16 05:32:54;;;;;;;40.75;30.02;;;;;;;;;;143726;638;47020;-59
2021/10/16 05:35:22;;;;;;;39.35;25.52;;;;;;;;;;143726;564;47020;-60
2021/10/16 05:37:49;;;;;;;28.80;18.70;;;;;;;;;;143722;564;46021;-59
2021/10/16 05:40:18;;;;;;;30.12;20.35;;;;;;;;;;143728;572;46021;-55
2021/10/16 05:42:45;;;;;;;28.95;18.77;;;;;;;;;;143725;625;47022;-59
2021/10/16 05:45:12;;;;;;;32.22;21.05;;;;;;;;;;143723;589;47011;-59
2021/10/16 05:47:41;;;;;;;29.08;19.10;;;;;;;;;;143729;574;46021;-60
2021/10/16 05:50:09;;;;;;;25.08;18.67;;;;;;;;;;143727;577;46020;-59
2021/10/16 05:52:37;;;;;;;20.42;13.45;;;;;;;;;;143726;581;47021;-59
2021/10/16 05:55:08;;;;;;;20.45;15.27;;;;;;;;;;143725;602;47010;-59
2021/10/16 05:57:35;;;;;;;18.92;11.98;;;;;;;;;;143729;582;46020;-60
2021/10/16 06:00:04;;;;;;;19.00;13.00;;;;;;;;;;143730;566;46020;-59
2021/10/16 06:02:31;;;;;;;19.98;13.80;;;;;;;;;;143726;646;47020;-59
2021/10/16 06:04:58;;;;;;;15.55;10.35;;;;;;;;;;143725;620;47010;-60
2021/10/16 06:07:25;;;;;;;17.17;10.73;;;;;;;;;;143726;588;46020;-60
2021/10/16 06:09:52;;;;;;;18.70;11.32;;;;;;;;;;143728;609;46021;-59
2021/10/16 06:12:19;;;;;;;14.70;9.30;;;;;;;;;;143728;601;47020;-60
2021/10/16 06:14:46;;;;;;;23.58;11.95;;;;;;;;;;143725;600;47011;-60
2021/10/16 06:17:13;;;;;;;15.10;9.63;;;;;;;;;;143730;631;46021;-59
2021/10/16 06:19:40;;;;;;;13.57;9.32;;;;;;;;;;143731;629;46020;-59
2021/10/16 06:22:07;;;;;;;12.95;9.48;;;;;;;;;;143725;576;47021;-59
2021/10/16 06:24:34;;;;;;;12.77;9.32;;;;;;;;;;143726;594;47010;-58
2021/10/16 06:27:01;;;;;;;19.48;11.00;;;;;;;;;;143727;617;46020;-59
2021/10/16 06:29:28;;;;;;;13.90;11.02;;;;;;;;;;143729;616;46020;-58
2021/10/16 06:31:55;;;;;;;16.75;12.90;;;;;;;;;;143726;576;47021;-59
2021/10/16 06:34:22;;;;;;;16.77;11.75;;;;;;;;;;143726;591;47010;-59
2021/10/16 06:36:49;;;;;;;15.90;11.40;;;;;;;;;;143729;644;46020;-59
2021/10/16 06:39:16;;;;;;;15.52;10.25;;;;;;;;;;143729;613;46021;-59
2021/10/16 06:41:42;;;;;;;14.70;9.50;;;;;;;;;;143725;611;47022;-59
2021/10/16 06:44:10;;;;;;;17.00;8.98;;;;;;;;;;143727;565;47010;-60
2021/10/16 06:46:37;;;;;;;16.92;10.02;;;;;;;;;;143727;602;46021;-59
2021/10/16 06:49:03;;;;;;;13.35;9.05;;;;;;;;;;143729;583;46020;-60
2021/10/16 06:51:30;;;;;;;12.02;8.65;;;;;;;;;;143726;575;47022;-59
2021/10/16 06:53:58;;;;;;;11.27;9.32;;;;;;;;;;143726;584;47010;-60
2021/10/16 06:56:26;;;;;;;12.85;9.07;;;;;;;;;;143729;595;46020;-60
2021/10/16 06:58:53;;;;;;;13.82;9.35;;;;;;;;;;143730;586;46020;-60
2021/10/16 07:01:20;;;;;;;14.02;9.82;;;;;;;;;;143725;584;47020;-61
2021/10/16 07:03:47;;;;;;;15.85;9.95;;;;;;;;;;143727;660;46010;-60
2021/10/16 07:06:14;;;;;;;13.05;10.15;;;;;;;;;;143729;612;46020;-59
2021/10/16 07:08:41;;;;;;;16.00;9.80;;;;;;;;;;143729;611;46021;-60
2021/10/16 07:11:08;;;;;;;14.68;9.73;;;;;;;;;;143725;634;47022;-60
2021/10/16 07:13:35;;;;;;;15.23;9.27;;;;;;;;;;143727;569;46010;-61
2021/10/16 07:16:02;;;;;;;13.32;9.10;;;;;;;;;;143727;586;46021;-59
2021/10/16 07:18:29;;;;;;;14.90;10.45;;;;;;;;;;143730;629;47012;-59
2021/10/16 07:20:56;;;;;;;14.65;9.13;;;;;;;;;;143726;564;47022;-61
2021/10/16 07:23:26;;;;;;;17.02;8.55;;;;;;;;;;143726;566;47010;-60
2021/10/16 07:25:55;;;;;;;18.35;10.13;;;;;;;;;;143729;569;46020;-60
2021/10/16 07:28:23;;;;;;;13.52;9.70;;;;;;;;;;143730;655;46020;-60
2021/10/16 07:30:50;;;;;;;13.32;8.68;;;;;;;;;;143727;615;47021;-60
2021/10/16 07:33:17;;;;;;;14.27;8.95;;;;;;;;;;143727;578;47010;-61
2021/10/16 07:35:45;;;;;;;11.90;8.40;;;;;;;;;;143730;614;46020;-60
2021/10/16 07:38:13;;;;;;;18.23;9.57;;;;;;;;;;143730;595;46021;-61
2021/10/16 07:40:41;;;;;;;11.40;8.23;;;;;;;;;;143726;617;47022;-60
2021/10/16 07:43:09;;;;;;;21.15;9.23;;;;;;;;;;143727;612;47010;-60
2021/10/16 07:45:36;;;;;;;13.45;8.60;;;;;;;;;;143732;569;46021;-60
2021/10/16 07:48:03;;;;;;;15.57;8.82;;;;;;;;;;143730;658;46020;-59
2021/10/16 07:50:30;;;;;;;17.80;9.32;;;;;;;;;;143727;571;47020;-59
2021/10/16 07:52:57;;;;;;;19.45;10.13;;;;;;;;;;143726;598;47010;-59
2021/10/16 07:55:24;;;;;;;13.45;8.77;;;;;;;;;;143730;605;46020;-59
2021/10/16 07:57:51;;;;;;;16.02;9.05;;;;;;;;;;143727;588;46020;-59
2021/10/16 08:00:18;;;;;;;11.63;8.10;;;;;;;;;;143727;572;47021;-60
2021/10/16 08:02:46;;;;;;;12.82;7.93;;;;;;;;;;143726;626;47010;-61
2021/10/16 08:05:15;;;;;;;11.38;7.43;;;;;;;;;;143725;570;46020;-61
2021/10/16 08:07:43;;;;;;;10.25;6.00;;;;;;;;;;143731;596;46021;-60
2021/10/16 08:10:11;;;;;;;7.72;5.62;;;;;;;;;;143726;623;47020;-60
2021/10/16 08:12:39;;;;;;;10.43;6.30;;;;;;;;;;143719;631;47011;-59
2021/10/16 08:15:06;;;;;;;8.40;5.32;;;;;;;;;;143729;613;46021;-61
2021/10/16 08:17:34;;;;;;;8.27;5.45;;;;;;;;;;143729;572;46028;-60
2021/10/16 08:20:01;;;;;;;7.80;5.28;;;;;;;;;;143727;588;47021;-60
2021/10/16 08:22:29;;;;;;;7.00;5.20;;;;;;;;;;143727;784;47010;-60
2021/10/16 08:24:56;;;;;;;7.40;3.92;;;;;;;;;;143729;590;46020;-59
2021/10/16 08:27:23;;;;;;;8.88;5.57;;;;;;;;;;143730;803;46020;-59
2021/10/16 08:29:50;;;;;;;6.87;5.05;;;;;;;;;;143728;565;47020;-59
2021/10/16 08:32:17;;;;;;;10.35;5.25;;;;;;;;;;143727;753;47010;-60
2021/10/16 08:34:44;;;;;;;8.80;6.25;;;;;;;;;;143728;704;46020;-59
2021/10/16 08:37:12;;;;;;;9.68;5.80;;;;;;;;;;143730;577;46021;-60
2021/10/16 08:39:39;;;;;;;6.40;4.47;;;;;;;;;;143726;605;47020;-60
2021/10/16 08:42:06;;;;;;;7.47;5.20;;;;;;;;;;143727;642;47010;-61
2021/10/16 08:44:33;;;;;;;6.18;4.28;;;;;;;;;;143729;707;46021;-60
2021/10/16 08:47:01;;;;;;;4.70;3.60;;;;;;;;;;143730;572;46020;-60
2021/10/16 08:49:34;;;;;;;4.40;3.85;;;;;;;;;;143727;590;47020;-60
2021/10/16 08:52:00;;;;;;;8.00;3.80;;;;;;;;;;143728;566;47010;-61
2021/10/16 08:54:28;;;;;;;9.90;3.78;;;;;;;;;;143729;584;46020;-61
2021/10/16 08:56:55;;;;;;;5.60;4.53;;;;;;;;;;143731;564;46020;-60
2021/10/16 08:59:22;;;;;;;7.68;4.20;;;;;;;;;;143726;688;47021;-60
2021/10/16 09:01:56;;;;;;;7.80;5.12;;;;;;;;;;143728;861;46010;-61
2021/10/16 09:04:23;;;;;;;10.05;7.30;;;;;;;;;;143729;584;46020;-61
2021/10/16 09:06:50;;;;;;;16.27;9.80;;;;;;;;;;143730;566;46020;-60
2021/10/16 09:09:17;;;;;;;18.02;11.43;;;;;;;;;;143724;590;48020;-60
2021/10/16 09:11:45;;;;;;;8.90;5.20;;;;;;;;;;143725;687;47021;-60
2021/10/16 09:14:27;;;;;;;11.45;7.00;;;;;;;;;;143728;593;46020;-61
2021/10/16 09:17:04;;;;;;;20.70;14.70;;;;;;;;;;143729;611;46020;-60
2021/10/16 09:19:33;;;;;;;16.40;12.25;;;;;;;;;;143726;731;47020;-60
2021/10/16 09:22:18;;;;;;;18.95;12.40;;;;;;;;;;143725;581;47011;-60
2021/10/16 09:24:46;;;;;;;7.87;5.62;;;;;;;;;;143729;621;46020;-60
2021/10/16 09:27:19;;;;;;;17.08;9.90;;;;;;;;;;143728;669;46020;-59
2021/10/16 09:30:00;;;;;;;7.87;5.00;;;;;;;;;;143727;756;47021;-60
2021/10/16 09:32:28;;;;;;;7.50;4.55;;;;;;;;;;143726;595;47010;-60
2021/10/16 09:35:06;;;;;;;11.68;7.82;;;;;;;;;;143730;564;46020;-59
2021/10/16 09:37:33;;;;;;;19.52;14.70;;;;;;;;;;143731;625;46021;-59
2021/10/16 09:40:02;;;;;;;19.55;14.63;;;;;;;;;;143727;608;47020;-59
2021/10/16 09:42:46;;;;;;;14.73;10.15;;;;;;;;;;143727;676;47010;-59
2021/10/16 09:45:15;;;;;;;15.03;11.33;;;;;;;;;;143728;777;46023;-58
2021/10/16 09:47:57;;;;;;;16.45;11.63;;;;;;;;;;143730;695;46020;-59
2021/10/16 09:50:25;;;;;;;18.23;13.35;;;;;;;;;;143727;592;47021;-58
2021/10/16 09:52:52;;;;;;;16.00;12.25;;;;;;;;;;143727;612;47010;-59
2021/10/16 09:55:20;;;;;;;6.97;5.62;;;;;;;;;;143729;581;46020;-58
2021/10/16 09:57:48;;;;;;;9.75;7.70;;;;;;;;;;143730;570;46020;-59
2021/10/16 10:00:16;;;;;;;13.13;9.43;;;;;;;;;;143726;604;47023;-59
2021/10/16 10:02:50;;;;;;;12.13;8.15;;;;;;;;;;143726;582;47010;-58
2021/10/16 10:05:21;;;;;;;9.20;7.27;;;;;;;;;;143729;629;46020;-58
2021/10/16 10:07:49;;;;;;;3.35;2.58;;;;;;;;;;143731;565;46021;-58
2021/10/16 10:10:16;;;;;;;13.18;8.43;;;;;;;;;;143727;579;47020;-58
2021/10/16 10:12:45;;;;;;;4.57;3.33;;;;;;;;;;143727;600;47010;-59
2021/10/16 10:15:12;;;;;;;5.60;4.20;;;;;;;;;;143729;618;46021;-58
2021/10/16 10:17:39;;;;;;;6.65;4.18;;;;;;;;;;143730;587;46020;-60
2021/10/16 10:20:11;;;;;;;9.13;3.12;;;;;;;;;;143727;576;47044;-60
2021/10/16 10:22:40;;;;;;;4.93;3.87;;;;;;;;;;143728;618;46010;-59
2021/10/16 10:25:25;;;;;;;4.30;3.45;;;;;;;;;;143728;575;46020;-59
2021/10/16 10:27:56;;;;;;;7.50;5.37;;;;;;;;;;143731;583;46020;-59
2021/10/16 10:30:40;;;;;;;7.95;4.47;;;;;;;;;;143723;575;47020;-59
2021/10/16 10:33:24;;;;;;;7.95;5.97;;;;;;;;;;143727;568;47010;-58
2021/10/16 10:36:22;;;;;;;8.27;5.73;;;;;;;;;;143727;570;46020;-58
2021/10/16 10:38:49;;;;;;;5.70;3.45;;;;;;;;;;143731;641;46020;-59
2021/10/16 10:41:30;;;;;;;6.65;4.43;;;;;;;;;;143727;613;47022;-59
2021/10/16 10:43:57;;;;;;;6.03;4.37;;;;;;;;;;143726;577;47010;-58
2021/10/16 10:46:28;;;;;;;10.15;6.62;;;;;;;;;;143728;589;46020;-58
2021/10/16 10:49:07;;;;;;;8.23;5.75;;;;;;;;;;143731;588;46020;-60
2021/10/16 10:51:36;;;;;;;11.32;5.87;;;;;;;;;;143727;585;47021;-59
2021/10/16 10:54:22;;;;;;;10.10;7.35;;;;;;;;;;143728;569;47010;-60
2021/10/16 10:56:52;;;;;;;9.80;3.75;;;;;;;;;;143730;600;46020;-60
2021/10/16 10:59:20;;;;;;;7.35;4.47;;;;;;;;;;143731;572;46021;-60
2021/10/16 11:02:04;;;;;;;8.48;5.37;;;;;;;;;;143727;564;47022;-60
2021/10/16 11:04:39;;;;;;;7.70;4.95;;;;;;;;;;143726;580;47010;-60
2021/10/16 11:07:10;;;;;;;14.85;9.75;;;;;;;;;;143728;597;46021;-60
2021/10/16 11:09:38;;;;;;;9.13;5.35;;;;;;;;;;143731;569;46020;-60
2021/10/16 11:12:06;;;;;;;11.68;5.60;;;;;;;;;;143726;566;47021;-60
2021/10/16 11:14:35;;;;;;;10.20;5.43;;;;;;;;;;143727;571;47010;-60
2021/10/16 11:17:14;;;;;;;12.57;6.78;;;;;;;;;;143730;632;46020;-60
2021/10/16 11:19:57;;;;;;;9.27;5.40;;;;;;;;;;143730;614;46020;-60
2021/10/16 11:22:40;;;;;;;6.68;4.25;;;;;;;;;;143728;564;47023;-60
2021/10/16 11:25:07;;;;;;;8.25;3.75;;;;;;;;;;143726;590;47010;-59
2021/10/16 11:27:35;;;;;;;7.50;4.55;;;;;;;;;;143728;595;46020;-61
2021/10/16 11:30:03;;;;;;;7.03;4.05;;;;;;;;;;143730;572;46020;-60
2021/10/16 11:32:33;;;;;;;6.95;5.12;;;;;;;;;;143728;622;47020;-61
2021/10/16 11:35:08;;;;;;;10.57;7.80;;;;;;;;;;143726;586;47011;-61
2021/10/16 11:37:48;;;;;;;7.68;4.20;;;;;;;;;;143728;590;46020;-60
2021/10/16 11:40:18;;;;;;;6.68;4.55;;;;;;;;;;143729;656;47012;-61
2021/10/16 11:42:56;;;;;;;12.25;8.13;;;;;;;;;;143729;608;47021;-61
2021/10/16 11:45:29;;;;;;;11.73;7.25;;;;;;;;;;143725;637;47010;-61
2021/10/16 11:47:59;;;;;;;10.98;5.70;;;;;;;;;;143731;576;46020;-60
2021/10/16 11:50:29;;;;;;;9.60;6.55;;;;;;;;;;143732;609;46020;-61
2021/10/16 11:53:28;;;;;;;8.85;6.40;;;;;;;;;;143726;569;47020;-61
2021/10/16 11:56:10;;;;;;;8.43;4.80;;;;;;;;;;143725;608;47010;-61
2021/10/16 11:58:38;;;;;;;9.18;6.65;;;;;;;;;;143726;569;46021;-61
2021/10/16 12:01:07;;;;;;;6.32;4.25;;;;;;;;;;143730;566;46020;-61
2021/10/16 12:03:40;;;;;;;10.55;5.70;;;;;;;;;;143724;608;47022;-61
2021/10/16 12:06:14;;;;;;;8.93;4.75;;;;;;;;;;143726;600;47010;-61
2021/10/16 12:08:58;;;;;;;8.32;3.95;;;;;;;;;;143728;588;46020;-61
2021/10/16 12:11:32;;;;;;;5.87;4.43;;;;;;;;;;143729;609;46020;-61
2021/10/16 12:14:02;;;;;;;3.60;2.92;;;;;;;;;;143726;613;47021;-60
2021/10/16 12:16:40;;;;;;;4.62;3.75;;;;;;;;;;143724;606;47029;-61
2021/10/16 12:19:26;;;;;;;9.25;5.07;;;;;;;;;;143724;616;46020;-62
2021/10/16 12:21:55;;;;;;;7.15;4.65;;;;;;;;;;143728;586;46023;-61
2021/10/16 12:24:24;;;;;;;3.95;3.28;;;;;;;;;;143724;581;47022;-61
2021/10/16 12:27:22;;;;;;;5.50;3.30;;;;;;;;;;143726;579;47010;-61
2021/10/16 12:29:50;;;;;;;7.07;3.50;;;;;;;;;;143727;615;46023;-61
2021/10/16 12:32:18;;;;;;;6.22;4.18;;;;;;;;;;143729;596;46020;-61
2021/10/16 12:34:52;;;;;;;6.28;4.47;;;;;;;;;;143725;625;47021;-60
2021/10/16 12:37:19;;;;;;;7.65;4.18;;;;;;;;;;143727;586;46020;-60
2021/10/16 12:39:48;;;;;;;4.93;3.90;;;;;;;;;;143728;624;46020;-62
2021/10/16 12:42:17;;;;;;;7.97;5.60;;;;;;;;;;143730;618;46013;-60
2021/10/16 12:44:49;;;;;;;7.62;5.90;;;;;;;;;;143726;598;47023;-61
2021/10/16 12:47:29;;;;;;;4.82;4.15;;;;;;;;;;143724;570;47010;-61
2021/10/16 12:50:03;;;;;;;8.60;5.10;;;;;;;;;;143726;590;46020;-61
2021/10/16 12:52:57;;;;;;;13.43;4.80;;;;;;;;;;143727;597;46020;-60
2021/10/16 12:55:25;;;;;;;6.95;5.03;;;;;;;;;;143725;593;47020;-61
2021/10/16 12:57:56;;;;;;;7.78;4.47;;;;;;;;;;143724;606;47010;-60
2021/10/16 13:00:25;;;;;;;7.62;5.15;;;;;;;;;;143728;587;46020;-61
2021/10/16 13:02:52;;;;;;;5.87;4.37;;;;;;;;;;143728;604;46020;-61
2021/10/16 13:05:22;;;;;;;9.63;4.57;;;;;;;;;;143725;596;47021;-60
2021/10/16 13:07:49;;;;;;;6.47;4.18;;;;;;;;;;143726;629;46010;-61
2021/10/16 13:10:16;;;;;;;7.25;3.75;;;;;;;;;;143726;565;46020;-61
2021/10/16 13:12:44;;;;;;;3.62;3.22;;;;;;;;;;143729;636;46020;-61
2021/10/16 13:15:12;;;;;;;4.82;3.80;;;;;;;;;;143725;564;47020;-60
2021/10/16 13:17:39;;;;;;;5.65;4.65;;;;;;;;;;143725;599;47010;-61
2021/10/16 13:20:07;;;;;;;6.47;4.47;;;;;;;;;;143725;583;46021;-61
2021/10/16 13:22:35;;;;;;;4.32;3.60;;;;;;;;;;143729;587;46020;-61
2021/10/16 13:25:02;;;;;;;6.90;4.87;;;;;;;;;;143725;579;47020;-61
2021/10/16 13:27:30;;;;;;;4.62;3.75;;;;;;;;;;143724;613;47010;-61
2021/10/16 13:29:58;;;;;;;6.07;3.83;;;;;;;;;;143727;595;46020;-61
2021/10/16 13:32:25;;;;;;;5.47;3.90;;;;;;;;;;143728;573;46020;-61
2021/10/16 13:34:52;;;;;;;5.97;4.37;;;;;;;;;;143724;570;47022;-62
2021/10/16 13:37:20;;;;;;;6.40;4.12;;;;;;;;;;143723;585;47010;-60
2021/10/16 13:39:46;;;;;;;4.87;3.65;;;;;;;;;;143726;635;46020;-61
2021/10/16 13:42:14;;;;;;;6.40;3.62;;;;;;;;;;143729;595;46020;-61
2021/10/16 13:44:42;;;;;;;7.43;3.95;;;;;;;;;;143725;570;47020;-62
2021/10/16 13:47:09;;;;;;;4.78;3.45;;;;;;;;;;143722;606;47010;-61
2021/10/16 13:49:37;;;;;;;5.53;3.90;;;;;;;;;;143725;624;46020;-60
2021/10/16 13:52:05;;;;;;;5.32;3.33;;;;;;;;;;143728;584;46020;-61
2021/10/16 13:54:32;;;;;;;3.97;3.30;;;;;;;;;;143725;580;47020;-62
2021/10/16 13:57:00;;;;;;;5.28;3.90;;;;;;;;;;143725;601;47011;-62
2021/10/16 13:59:26;;;;;;;4.53;3.53;;;;;;;;;;143725;594;46010;-61
2021/10/16 14:01:53;;;;;;;5.97;3.80;;;;;;;;;;143728;595;46020;-62
2021/10/16 14:04:21;;;;;;;3.70;2.92;;;;;;;;;;143723;595;47022;-62
2021/10/16 14:06:48;;;;;;;8.32;3.65;;;;;;;;;;143724;564;47010;-61
2021/10/16 14:09:15;;;;;;;4.00;3.15;;;;;;;;;;143728;814;46020;-62
2021/10/16 14:11:42;;;;;;;5.00;3.33;;;;;;;;;;143728;579;46020;-62
2021/10/16 14:14:09;;;;;;;3.37;3.08;;;;;;;;;;143725;584;47020;-61
2021/10/16 14:16:36;;;;;;;4.65;2.90;;;;;;;;;;143725;565;47010;-62
2021/10/16 14:19:04;;;;;;;5.05;3.15;;;;;;;;;;143727;587;46020;-61
2021/10/16 14:21:31;;;;;;;3.00;2.70;;;;;;;;;;143729;618;46021;-60
2021/10/16 14:23:58;;;;;;;3.53;3.05;;;;;;;;;;143724;576;47020;-62
2021/10/16 14:26:25;;;;;;;6.75;3.17;;;;;;;;;;143726;569;47010;-62
2021/10/16 14:28:52;;;;;;;4.32;2.95;;;;;;;;;;143726;577;46021;-62
2021/10/16 14:31:19;;;;;;;4.25;3.65;;;;;;;;;;143728;602;46020;-60
2021/10/16 14:33:46;;;;;;;6.30;3.67;;;;;;;;;;143726;726;47020;-61
2021/10/16 14:36:13;;;;;;;5.43;3.40;;;;;;;;;;143724;573;47010;-61
2021/10/16 14:38:40;;;;;;;4.03;3.42;;;;;;;;;;143727;570;46020;-61
2021/10/16 14:41:07;;;;;;;4.35;3.37;;;;;;;;;;143729;577;46020;-60
2021/10/16 14:43:34;;;;;;;5.10;3.60;;;;;;;;;;143725;611;47020;-60
2021/10/16 14:46:01;;;;;;;3.72;3.20;;;;;;;;;;143726;576;46010;-60